createdAt,value
2019-02-21T00:01:47.743Z,89.00
2019-02-21T00:04:17.671Z,88.90
2019-02-21T00:06:45.884Z,89.20
2019-02-21T00:09:13.234Z,89.10
2019-02-21T00:11:40.819Z,89.40
2019-02-21T00:14:08.509Z,89.60
2019-02-21T00:16:36.408Z,89.60
2019-02-21T00:19:03.979Z,89.70
2019-02-21T00:21:31.606Z,89.50
2019-02-21T00:23:59.486Z,89.80
2019-02-21T00:26:27.335Z,89.30
2019-02-21T00:28:54.586Z,89.60
2019-02-21T00:31:22.867Z,89.70
2019-02-21T00:33:50.646Z,90.70
2019-02-21T00:36:19.086Z,90.60
2019-02-21T00:38:46.631Z,90.30
2019-02-21T00:41:14.053Z,90.40
2019-02-21T00:43:41.860Z,90.20
2019-02-21T00:46:09.492Z,90.20
2019-02-21T00:48:37.297Z,90.00
2019-02-21T00:51:07.969Z,90.20
2019-02-21T00:53:35.230Z,90.20
2019-02-21T00:56:04.127Z,90.60
2019-02-21T00:58:31.380Z,90.90
2019-02-21T01:00:59.943Z,91.10
2019-02-21T01:03:27.965Z,91.10
2019-02-21T01:05:56.096Z,91.10
2019-02-21T01:08:25.593Z,91.20
2019-02-21T01:10:52.973Z,91.30
2019-02-21T01:13:21.559Z,90.90
2019-02-21T01:15:49.300Z,90.70
2019-02-21T01:18:18.236Z,90.30
2019-02-21T01:20:46.409Z,90.00
2019-02-21T01:23:14.919Z,90.10
2019-02-21T01:25:43.718Z,90.30
2019-02-21T01:28:11.823Z,90.20
2019-02-21T01:30:39.494Z,90.00
2019-02-21T01:33:06.826Z,90.00
2019-02-21T01:35:33.961Z,90.70
2019-02-21T01:38:01.372Z,90.70
2019-02-21T01:40:29.381Z,90.60
2019-02-21T01:42:56.803Z,90.30
2019-02-21T01:45:24.811Z,90.20
2019-02-21T01:47:52.477Z,89.90
2019-02-21T01:50:19.761Z,89.90
2019-02-21T01:52:47.652Z,90.20
2019-02-21T01:55:14.993Z,90.30
2019-02-21T01:57:43.303Z,90.10
2019-02-21T02:00:10.949Z,90.20
2019-02-21T02:02:38.254Z,90.20
2019-02-21T02:05:05.955Z,90.00
2019-02-21T02:07:33.424Z,90.20
2019-02-21T02:10:03.160Z,90.40
2019-02-21T02:12:30.638Z,90.40
2019-02-21T02:14:58.858Z,90.50
2019-02-21T02:17:26.417Z,90.30
2019-02-21T02:19:55.639Z,90.30
2019-02-21T02:22:22.990Z,90.10
2019-02-21T02:24:50.345Z,90.30
2019-02-21T02:27:18.677Z,90.10
2019-02-21T02:29:46.048Z,90.20
2019-02-21T02:32:13.360Z,90.30
2019-02-21T02:34:40.616Z,90.30
2019-02-21T02:37:08.832Z,90.20
2019-02-21T02:39:36.457Z,90.40
2019-02-21T02:42:06.490Z,90.20
2019-02-21T02:44:33.861Z,90.40
2019-02-21T02:47:01.262Z,90.60
2019-02-21T02:49:29.660Z,90.70
2019-02-21T02:51:56.930Z,91.00
2019-02-21T02:54:24.112Z,91.10
2019-02-21T02:56:51.510Z,91.00
2019-02-21T02:59:18.729Z,91.00
2019-02-21T03:01:46.169Z,90.80
2019-02-21T03:04:14.097Z,91.00
2019-02-21T03:06:41.966Z,91.20
2019-02-21T03:09:12.801Z,91.40
2019-02-21T03:11:40.210Z,91.80
2019-02-21T03:14:07.646Z,91.60
2019-02-21T03:16:35.314Z,91.50
2019-02-21T03:19:02.670Z,91.40
2019-02-21T03:21:29.862Z,91.50
2019-02-21T03:23:57.143Z,91.40
2019-02-21T03:26:24.495Z,91.50
2019-02-21T03:28:51.720Z,91.10
2019-02-21T03:31:18.964Z,91.60
2019-02-21T03:33:46.216Z,91.70
2019-02-21T03:36:13.693Z,91.40
2019-02-21T03:38:41.579Z,91.20
2019-02-21T03:41:09.481Z,91.10
2019-02-21T03:43:36.820Z,90.90
2019-02-21T03:46:04.054Z,91.10
2019-02-21T03:48:31.336Z,91.20
2019-02-21T03:50:58.588Z,91.20
2019-02-21T03:53:26.019Z,91.30
2019-02-21T03:55:53.370Z,91.60
2019-02-21T03:58:20.630Z,92.00
2019-02-21T04:00:48.180Z,92.20
2019-02-21T04:03:15.732Z,92.40
2019-02-21T04:05:43.187Z,92.70
2019-02-21T04:08:10.531Z,92.60
2019-02-21T04:10:37.848Z,91.70
2019-02-21T04:13:05.250Z,91.20
2019-02-21T04:15:32.554Z,91.40
2019-02-21T04:17:59.895Z,91.50
2019-02-21T04:20:27.093Z,91.40
2019-02-21T04:22:54.780Z,91.40
2019-02-21T04:25:22.111Z,91.40
2019-02-21T04:27:49.355Z,91.40
2019-02-21T04:30:16.738Z,91.20
2019-02-21T04:32:44.290Z,91.20
2019-02-21T04:35:11.535Z,91.30
2019-02-21T04:37:38.623Z,91.40
2019-02-21T04:40:06.475Z,91.10
2019-02-21T04:42:33.831Z,90.90
2019-02-21T04:45:01.089Z,91.30
2019-02-21T04:47:28.395Z,91.10
2019-02-21T04:49:55.526Z,91.40
2019-02-21T04:52:22.934Z,91.80
2019-02-21T04:54:50.083Z,91.80
2019-02-21T04:57:17.330Z,91.50
2019-02-21T04:59:45.039Z,91.50
2019-02-21T05:02:12.271Z,91.50
2019-02-21T05:04:39.695Z,91.90
2019-02-21T05:07:06.945Z,91.70
2019-02-21T05:09:34.600Z,92.10
2019-02-21T05:12:01.701Z,92.60
2019-02-21T05:14:29.137Z,93.10
2019-02-21T05:16:56.693Z,92.80
2019-02-21T05:19:23.935Z,92.60
2019-02-21T05:21:51.303Z,92.00
2019-02-21T05:24:18.561Z,91.60
2019-02-21T05:26:50.001Z,91.80
2019-02-21T05:29:17.261Z,91.50
2019-02-21T05:32:19.236Z,91.60
2019-02-21T05:34:54.776Z,91.40
2019-02-21T05:37:40.270Z,91.50
2019-02-21T05:40:19.995Z,91.50
2019-02-21T05:43:05.575Z,91.40
2019-02-21T05:45:50.790Z,91.50
2019-02-21T05:48:31.958Z,91.80
2019-02-21T05:51:18.895Z,92.00
2019-02-21T05:53:57.579Z,91.80
2019-02-21T05:56:40.676Z,91.70
2019-02-21T05:59:29.090Z,92.30
2019-02-21T06:02:10.614Z,92.60
2019-02-21T06:05:00.333Z,92.80
2019-02-21T06:07:47.758Z,92.70
2019-02-21T06:10:47.024Z,92.70
2019-02-21T06:13:49.083Z,92.60
2019-02-21T06:16:26.213Z,92.00
2019-02-21T06:19:13.112Z,91.90
2019-02-21T06:22:10.000Z,91.90
2019-02-21T06:24:48.766Z,91.50
2019-02-21T06:27:31.291Z,92.00
2019-02-21T06:30:02.319Z,91.60
2019-02-21T06:32:30.235Z,92.00
2019-02-21T06:34:57.615Z,91.90
2019-02-21T06:37:24.902Z,91.60
2019-02-21T06:39:52.370Z,91.60
2019-02-21T06:42:20.096Z,91.80
2019-02-21T06:44:47.295Z,91.70
2019-02-21T06:47:14.396Z,91.40
2019-02-21T06:49:41.515Z,91.70
2019-02-21T06:52:08.917Z,92.20
2019-02-21T06:54:36.075Z,92.00
2019-02-21T06:57:03.406Z,92.00
2019-02-21T06:59:30.575Z,92.20
2019-02-21T07:01:58.146Z,92.40
2019-02-21T07:04:25.481Z,92.80
2019-02-21T07:06:52.590Z,92.60
2019-02-21T07:09:20.010Z,92.90
2019-02-21T07:11:47.274Z,92.90
2019-02-21T07:14:14.515Z,92.80
2019-02-21T07:16:41.894Z,92.80
2019-02-21T07:19:10.796Z,93.00
2019-02-21T07:21:38.441Z,92.90
2019-02-21T07:24:05.731Z,93.10
2019-02-21T07:26:32.919Z,93.20
2019-02-21T07:29:00.652Z,93.40
2019-02-21T07:31:29.273Z,94.10
2019-02-21T07:33:57.337Z,94.00
2019-02-21T07:36:24.746Z,94.30
2019-02-21T07:39:08.606Z,94.60
2019-02-21T07:41:24.848Z,94.60
2019-02-21T07:43:52.219Z,94.80
2019-02-21T07:46:19.334Z,94.80
2019-02-21T07:48:48.362Z,94.90
2019-02-21T07:51:15.700Z,94.60
2019-02-21T07:53:46.911Z,94.40
2019-02-21T07:56:16.466Z,94.40
2019-02-21T07:58:44.894Z,94.50
2019-02-21T08:01:12.304Z,94.40
2019-02-21T08:03:44.183Z,94.40
2019-02-21T08:06:09.013Z,94.00
2019-02-21T08:08:36.271Z,93.60
2019-02-21T08:11:07.032Z,93.50
2019-02-21T08:13:33.944Z,93.50
2019-02-21T08:16:02.189Z,93.30
2019-02-21T08:18:29.412Z,93.00
2019-02-21T08:20:57.181Z,92.90
2019-02-21T08:23:24.193Z,92.90
2019-02-21T08:25:51.292Z,92.80
2019-02-21T08:28:18.540Z,92.40
2019-02-21T08:30:46.213Z,92.20
2019-02-21T08:33:27.805Z,92.20
2019-02-21T08:35:57.735Z,92.80
2019-02-21T08:38:24.860Z,92.70
2019-02-21T08:40:53.370Z,92.50
2019-02-21T08:43:23.675Z,92.30
2019-02-21T08:45:51.438Z,92.10
2019-02-21T08:48:18.679Z,92.20
2019-02-21T08:50:47.581Z,92.10
2019-02-21T08:53:15.488Z,92.20
2019-02-21T08:55:42.823Z,92.30
2019-02-21T08:58:10.098Z,92.30
2019-02-21T09:00:40.458Z,92.10
2019-02-21T09:03:08.230Z,92.30
2019-02-21T09:05:35.436Z,92.20
2019-02-21T09:08:02.774Z,92.10
2019-02-21T09:10:30.145Z,92.10
2019-02-21T09:12:57.504Z,91.90
2019-02-21T09:15:25.682Z,91.90
2019-02-21T09:17:54.225Z,91.70
2019-02-21T09:20:22.645Z,91.60
2019-02-21T09:22:50.224Z,91.70
2019-02-21T09:25:18.473Z,91.70
2019-02-21T09:27:45.909Z,91.70
2019-02-21T09:30:15.721Z,91.20
2019-02-21T09:32:43.593Z,90.90
2019-02-21T09:35:10.977Z,90.80
2019-02-21T09:37:38.356Z,90.70
2019-02-21T09:40:10.578Z,90.60
2019-02-21T09:42:37.227Z,90.40
2019-02-21T09:45:09.430Z,90.30
2019-02-21T09:47:37.009Z,90.20
2019-02-21T09:50:04.645Z,90.40
2019-02-21T09:52:31.899Z,90.30
2019-02-21T09:54:59.051Z,90.30
2019-02-21T09:57:26.269Z,90.10
2019-02-21T09:59:53.749Z,90.10
2019-02-21T10:02:23.142Z,90.00
2019-02-21T10:04:52.492Z,89.90
2019-02-21T10:07:19.622Z,89.60
2019-02-21T10:09:47.054Z,89.60
2019-02-21T10:12:14.540Z,89.80
2019-02-21T10:14:42.915Z,89.50
2019-02-21T10:17:11.634Z,89.00
2019-02-21T10:19:38.979Z,88.70
2019-02-21T10:22:07.300Z,88.10
2019-02-21T10:24:34.693Z,87.70
2019-02-21T10:27:02.071Z,87.90
2019-02-21T10:29:30.726Z,87.50
2019-02-21T10:31:58.086Z,87.40
2019-02-21T10:34:25.189Z,87.60
2019-02-21T10:36:54.345Z,87.30
2019-02-21T10:39:21.715Z,87.40
2019-02-21T10:41:51.412Z,87.60
2019-02-21T10:44:18.801Z,87.20
2019-02-21T10:46:45.903Z,86.60
2019-02-21T10:49:13.923Z,86.70
2019-02-21T10:51:41.571Z,86.60
2019-02-21T10:54:08.798Z,86.50
2019-02-21T10:56:36.606Z,86.10
2019-02-21T10:59:03.913Z,86.20
2019-02-21T11:01:31.211Z,85.70
2019-02-21T11:03:59.512Z,85.00
2019-02-21T11:06:27.809Z,85.10
2019-02-21T11:08:55.075Z,84.00
2019-02-21T11:11:22.557Z,83.90
2019-02-21T11:13:49.884Z,83.80
2019-02-21T11:16:17.154Z,83.80
2019-02-21T11:18:44.546Z,83.30
2019-02-21T11:21:11.783Z,82.70
2019-02-21T11:23:39.633Z,82.90
2019-02-21T11:26:07.326Z,82.30
2019-02-21T11:28:36.671Z,81.80
2019-02-21T11:31:04.176Z,81.80
2019-02-21T11:33:31.459Z,82.20
2019-02-21T11:35:59.440Z,82.50
2019-02-21T11:38:27.675Z,82.40
2019-02-21T11:40:55.195Z,82.50
2019-02-21T11:43:22.457Z,81.60
2019-02-21T11:45:55.097Z,81.70
2019-02-21T11:48:18.829Z,81.90
2019-02-21T11:50:46.291Z,82.10
2019-02-21T11:53:13.916Z,81.50
2019-02-21T11:55:41.247Z,81.00
2019-02-21T11:58:08.618Z,80.60
2019-02-21T12:00:36.947Z,80.70
2019-02-21T12:03:04.163Z,80.60
2019-02-21T12:05:32.184Z,80.80
2019-02-21T12:08:02.834Z,80.50
2019-02-21T12:10:30.402Z,80.40
2019-02-21T12:12:57.603Z,80.30
2019-02-21T12:15:24.848Z,80.20
2019-02-21T12:17:53.106Z,79.90
2019-02-21T12:20:20.509Z,80.20
2019-02-21T12:22:47.814Z,79.50
2019-02-21T12:25:15.331Z,79.40
2019-02-21T12:27:42.674Z,79.20
2019-02-21T12:30:12.632Z,79.30
2019-02-21T12:32:40.226Z,79.60
2019-02-21T12:35:07.756Z,79.50
2019-02-21T12:37:35.324Z,79.40
2019-02-21T12:40:02.739Z,79.00
2019-02-21T12:42:30.391Z,78.50
2019-02-21T12:44:57.526Z,77.80
2019-02-21T12:47:25.041Z,77.70
2019-02-21T12:49:55.460Z,77.80
2019-02-21T12:52:22.437Z,77.60
2019-02-21T12:54:51.819Z,77.30
2019-02-21T12:57:19.107Z,77.00
2019-02-21T12:59:47.307Z,77.20
2019-02-21T13:02:14.552Z,77.40
2019-02-21T13:04:41.807Z,77.40
2019-02-21T13:07:09.191Z,77.40
2019-02-21T13:09:36.450Z,77.10
2019-02-21T13:12:03.655Z,77.20
2019-02-21T13:14:30.915Z,77.10
2019-02-21T13:16:58.152Z,77.30
2019-02-21T13:19:26.619Z,78.00
2019-02-21T13:21:53.861Z,77.10
2019-02-21T13:24:21.020Z,77.20
2019-02-21T13:26:48.335Z,76.80
2019-02-21T13:29:15.576Z,76.70
2019-02-21T13:31:42.697Z,76.30
2019-02-21T13:34:09.824Z,76.00
2019-02-21T13:36:36.985Z,74.90
2019-02-21T13:39:06.824Z,74.90
2019-02-21T13:41:34.343Z,74.10
2019-02-21T13:44:01.748Z,73.90
2019-02-21T13:46:36.758Z,73.80
2019-02-21T13:48:58.484Z,73.60
2019-02-21T13:51:25.839Z,72.80
2019-02-21T13:53:53.471Z,72.60
2019-02-21T13:56:20.832Z,72.80
2019-02-21T13:58:48.000Z,72.50
2019-02-21T14:01:15.744Z,73.00
2019-02-21T14:03:43.017Z,72.70
2019-02-21T14:06:10.302Z,72.40
2019-02-21T14:08:37.687Z,71.40
2019-02-21T14:11:05.278Z,71.40
2019-02-21T14:13:32.647Z,71.30
2019-02-21T14:15:59.889Z,71.60
2019-02-21T14:18:27.131Z,70.60
2019-02-21T14:20:54.310Z,70.60
2019-02-21T14:23:21.664Z,70.40
2019-02-21T14:25:49.338Z,70.60
2019-02-21T14:28:16.738Z,72.50
2019-02-21T14:30:44.005Z,74.10
2019-02-21T14:33:12.959Z,75.60
2019-02-21T14:35:40.387Z,75.80
2019-02-21T14:38:07.605Z,75.80
2019-02-21T14:40:34.976Z,75.50
2019-02-21T14:43:02.368Z,75.80
2019-02-21T14:45:29.468Z,75.90
2019-02-21T14:47:56.863Z,75.60
2019-02-21T14:50:24.451Z,75.70
2019-02-21T14:52:51.798Z,74.50
2019-02-21T14:55:18.895Z,70.70
2019-02-21T14:57:46.261Z,69.30
2019-02-21T15:00:16.229Z,68.60
2019-02-21T15:02:43.948Z,68.50
2019-02-21T15:05:11.390Z,68.50
2019-02-21T15:07:38.613Z,67.90
2019-02-21T15:10:06.480Z,68.00
2019-02-21T15:12:35.628Z,66.40
2019-02-21T15:15:03.780Z,66.20
2019-02-21T15:17:31.261Z,65.90
2019-02-21T15:19:58.614Z,65.50
2019-02-21T15:24:14.999Z,66.10
2019-02-21T15:26:42.193Z,65.60
2019-02-21T15:29:09.457Z,65.50
2019-02-21T15:31:36.715Z,65.40
2019-02-21T15:34:03.939Z,65.60
2019-02-21T15:36:38.129Z,66.10
2019-02-21T15:39:00.584Z,66.10
2019-02-21T15:41:27.963Z,66.30
2019-02-21T15:43:55.160Z,66.20
2019-02-21T15:46:22.309Z,66.60
2019-02-21T15:48:49.656Z,66.60
2019-02-21T15:51:18.091Z,66.80
2019-02-21T15:53:45.351Z,66.90
2019-02-21T15:56:13.029Z,66.90
2019-02-21T15:58:40.388Z,66.80
2019-02-21T16:01:07.742Z,67.20
2019-02-21T16:03:35.011Z,67.10
2019-02-21T16:06:02.390Z,67.70
2019-02-21T16:08:29.637Z,67.70
2019-02-21T16:10:57.002Z,67.90
2019-02-21T16:13:24.641Z,67.80
2019-02-21T16:15:52.365Z,67.90
2019-02-21T16:18:19.456Z,68.20
2019-02-21T16:20:46.861Z,68.50
2019-02-21T16:23:14.187Z,68.70
2019-02-21T16:25:41.416Z,69.30
2019-02-21T16:28:09.971Z,69.00
2019-02-21T16:30:37.699Z,69.20
2019-02-21T16:33:04.950Z,69.20
2019-02-21T16:35:32.384Z,69.60
2019-02-21T16:37:59.630Z,69.70
2019-02-21T16:40:26.842Z,69.80
2019-02-21T16:42:54.203Z,69.80
2019-02-21T16:45:21.847Z,70.20
2019-02-21T16:47:49.329Z,70.20
2019-02-21T16:50:16.571Z,70.50
2019-02-21T16:52:43.850Z,70.60
2019-02-21T16:55:14.358Z,71.00
2019-02-21T16:57:41.779Z,71.10
2019-02-21T17:00:10.770Z,71.20
2019-02-21T17:02:39.166Z,71.30
2019-02-21T17:05:07.064Z,71.60
2019-02-21T17:07:34.598Z,71.70
2019-02-21T17:10:04.033Z,72.00
2019-02-21T17:12:31.550Z,72.30
2019-02-21T17:14:58.897Z,73.00
2019-02-21T17:17:26.166Z,73.60
2019-02-21T17:19:53.401Z,74.40
2019-02-21T17:22:20.666Z,74.50
2019-02-21T17:24:47.868Z,74.70
2019-02-21T17:27:15.135Z,75.00
2019-02-21T17:29:42.369Z,75.20
2019-02-21T17:32:09.752Z,75.50
2019-02-21T17:34:37.020Z,75.80
2019-02-21T17:37:04.393Z,75.80
2019-02-21T17:39:31.860Z,76.00
2019-02-21T17:41:58.873Z,76.30
2019-02-21T17:44:26.174Z,76.60
2019-02-21T17:46:53.996Z,76.60
2019-02-21T17:49:22.482Z,77.10
2019-02-21T17:51:50.012Z,77.30
2019-02-21T17:54:17.710Z,77.40
2019-02-21T17:56:44.954Z,77.60
2019-02-21T17:59:12.286Z,77.70
2019-02-21T18:01:39.713Z,78.00
2019-02-21T18:04:07.428Z,78.60
2019-02-21T18:06:34.543Z,78.60
2019-02-21T18:09:03.535Z,78.70
2019-02-21T18:11:33.126Z,78.90
2019-02-21T18:14:00.540Z,79.30
2019-02-21T18:16:28.348Z,79.30
2019-02-21T18:18:55.776Z,79.40
2019-02-21T18:21:23.547Z,79.60
2019-02-21T18:23:50.921Z,79.80
2019-02-21T18:26:19.014Z,79.90
2019-02-21T18:28:46.297Z,80.00
2019-02-21T18:31:21.259Z,80.40
2019-02-21T18:33:48.517Z,80.50
2019-02-21T18:36:15.955Z,80.60
2019-02-21T18:38:43.332Z,80.40
2019-02-21T18:41:10.735Z,80.30
2019-02-21T18:43:37.975Z,80.80
2019-02-21T18:46:05.511Z,80.90
2019-02-21T18:48:32.920Z,80.80
2019-02-21T18:51:00.270Z,81.00
2019-02-21T18:53:27.644Z,80.80
2019-02-21T18:55:55.003Z,81.10
2019-02-21T18:58:22.243Z,81.00
2019-02-21T19:00:49.421Z,81.00
2019-02-21T19:03:16.812Z,81.20
2019-02-21T19:05:44.560Z,81.10
2019-02-21T19:08:11.669Z,81.10
2019-02-21T19:10:38.926Z,80.90
2019-02-21T19:13:07.829Z,81.30
2019-02-21T19:15:35.708Z,81.20
2019-02-21T19:18:03.356Z,80.90
2019-02-21T19:20:30.779Z,81.10
2019-02-21T19:22:57.851Z,80.70
2019-02-21T19:25:25.482Z,81.60
2019-02-21T19:27:52.568Z,81.40
2019-02-21T19:30:26.196Z,81.30
2019-02-21T19:32:53.938Z,81.80
2019-02-21T19:35:21.314Z,81.70
2019-02-21T19:37:48.540Z,81.60
2019-02-21T19:40:15.736Z,81.70
2019-02-21T19:42:43.069Z,81.60
2019-02-21T19:45:10.637Z,81.70
2019-02-21T19:47:37.917Z,81.80
2019-02-21T19:50:05.638Z,81.90
2019-02-21T19:52:33.025Z,82.00
2019-02-21T19:55:00.330Z,82.10
2019-02-21T19:57:27.601Z,82.60
2019-02-21T19:59:55.406Z,82.70
2019-02-21T20:02:23.622Z,82.90
2019-02-21T20:04:51.023Z,82.90
2019-02-21T20:07:18.294Z,83.00
2019-02-21T20:09:45.540Z,83.00
2019-02-21T20:12:12.781Z,83.40
2019-02-21T20:14:40.218Z,82.90
2019-02-21T20:17:07.852Z,83.10
2019-02-21T20:19:35.198Z,82.70
2019-02-21T20:22:02.673Z,83.20
2019-02-21T20:24:29.764Z,83.10
2019-02-21T20:27:00.259Z,82.90
2019-02-21T20:29:27.428Z,82.80
2019-02-21T20:31:54.837Z,83.00
2019-02-21T20:34:22.094Z,83.00
2019-02-21T20:36:51.404Z,83.10
2019-02-21T20:39:18.710Z,83.00
2019-02-21T20:41:47.790Z,83.10
2019-02-21T20:44:15.115Z,83.10
2019-02-21T20:46:42.474Z,83.30
2019-02-21T20:49:10.024Z,83.30
2019-02-21T20:51:37.280Z,83.40
2019-02-21T20:54:04.547Z,83.60
2019-02-21T20:56:31.754Z,83.70
2019-02-21T20:58:59.384Z,83.60
2019-02-21T21:01:26.643Z,83.90
2019-02-21T21:03:54.202Z,83.90
2019-02-21T21:06:21.372Z,84.10
2019-02-21T21:08:48.642Z,84.10
2019-02-21T21:11:16.226Z,84.30
2019-02-21T21:13:44.243Z,84.30
2019-02-21T21:16:11.558Z,84.50
2019-02-21T21:18:38.838Z,84.40
2019-02-21T21:21:06.102Z,84.60
2019-02-21T21:23:34.590Z,84.60
2019-02-21T21:26:03.068Z,84.50
2019-02-21T21:28:30.413Z,84.70
2019-02-21T21:30:57.707Z,84.70
2019-02-21T21:33:25.423Z,84.90
2019-02-21T21:35:52.827Z,84.70
2019-02-21T21:38:24.042Z,84.90
2019-02-21T21:40:49.749Z,84.90
2019-02-21T21:43:17.142Z,84.80
2019-02-21T21:45:45.608Z,85.10
2019-02-21T21:48:13.047Z,84.90
2019-02-21T21:50:40.276Z,85.00
2019-02-21T21:53:07.726Z,85.00
2019-02-21T21:55:35.090Z,85.00
2019-02-21T21:58:02.465Z,85.10
2019-02-21T22:00:29.673Z,85.00
2019-02-21T22:02:57.073Z,85.20
2019-02-21T22:05:24.451Z,85.10
2019-02-21T22:07:51.771Z,85.40
2019-02-21T22:10:19.021Z,85.20
2019-02-21T22:12:46.238Z,85.20
2019-02-21T22:15:13.967Z,85.50
2019-02-21T22:17:42.177Z,85.50
2019-02-21T22:20:09.681Z,85.60
2019-02-21T22:22:37.082Z,85.70
2019-02-21T22:25:04.896Z,85.60
2019-02-21T22:27:32.160Z,85.80
2019-02-21T22:29:59.440Z,85.80
2019-02-21T22:32:26.886Z,85.80
2019-02-21T22:34:54.223Z,85.80
2019-02-21T22:37:21.541Z,86.00
2019-02-21T22:39:49.003Z,86.10
2019-02-21T22:42:16.284Z,86.10
2019-02-21T22:44:43.488Z,86.20
2019-02-21T22:47:10.899Z,86.20
2019-02-21T22:49:38.042Z,86.20
2019-02-21T22:52:05.366Z,86.20
2019-02-21T22:54:32.613Z,86.10
2019-02-21T22:56:59.987Z,86.30
2019-02-21T22:59:27.399Z,86.20
2019-02-21T23:01:56.268Z,86.40
2019-02-21T23:04:51.395Z,86.40
2019-02-21T23:07:49.547Z,86.60
2019-02-21T23:10:16.874Z,86.60
2019-02-21T23:12:44.329Z,86.70
2019-02-21T23:15:13.868Z,86.50
2019-02-21T23:17:41.217Z,86.50
2019-02-21T23:20:08.781Z,86.40
2019-02-21T23:22:36.017Z,86.50
2019-02-21T23:25:05.952Z,86.50
2019-02-21T23:27:33.177Z,86.50
2019-02-21T23:30:00.415Z,86.40
2019-02-21T23:32:27.813Z,86.60
2019-02-21T23:34:57.386Z,86.60
2019-02-21T23:37:24.671Z,86.60
2019-02-21T23:39:51.899Z,86.60
2019-02-21T23:42:19.421Z,86.60
2019-02-21T23:44:46.884Z,86.70
2019-02-21T23:47:14.316Z,86.60
2019-02-21T23:49:41.577Z,86.70
2019-02-21T23:52:08.963Z,86.70
2019-02-21T23:54:36.527Z,86.70
2019-02-21T23:57:03.846Z,86.70
2019-02-21T23:59:31.082Z,86.90
